createdAt,value
2019-01-26T00:03:54.280Z,6.87
2019-01-26T00:08:55.884Z,6.90
2019-01-26T00:13:57.162Z,6.10
2019-01-26T00:18:58.433Z,5.47
2019-01-26T00:23:59.712Z,5.33
2019-01-26T00:29:00.992Z,5.63
2019-01-26T00:34:02.667Z,6.20
2019-01-26T00:39:06.342Z,5.03
2019-01-26T00:44:07.616Z,5.67
2019-01-26T00:49:08.888Z,6.60
2019-01-26T00:54:10.165Z,5.80
2019-01-26T00:59:11.436Z,6.57
2019-01-26T01:04:12.710Z,6.47
2019-01-26T01:09:14.020Z,6.80
2019-01-26T01:14:15.652Z,7.03
2019-01-26T01:19:17.254Z,6.47
2019-01-26T01:24:18.901Z,5.80
2019-01-26T01:29:20.181Z,6.03
2019-01-26T01:34:21.777Z,6.20
2019-01-26T01:39:23.495Z,5.67
2019-01-26T01:44:24.717Z,6.43
2019-01-26T01:49:25.987Z,6.90
2019-01-26T01:54:27.268Z,6.23
2019-01-26T01:59:28.540Z,6.20
2019-01-26T02:04:29.841Z,5.73
2019-01-26T02:09:31.117Z,5.70
2019-01-26T02:14:32.722Z,5.50
2019-01-26T02:19:34.009Z,6.03
2019-01-26T02:24:35.697Z,6.23
2019-01-26T02:29:36.969Z,5.13
2019-01-26T02:34:38.251Z,4.70
2019-01-26T02:39:39.880Z,4.73
2019-01-26T02:44:41.155Z,4.60
2019-01-26T02:49:42.428Z,4.63
2019-01-26T02:54:43.709Z,5.17
2019-01-26T02:59:44.992Z,3.90
2019-01-26T03:04:46.669Z,3.87
2019-01-26T03:09:47.951Z,3.77
2019-01-26T03:15:10.387Z,4.03
2019-01-26T03:20:13.497Z,3.40
2019-01-26T03:25:14.869Z,4.20
2019-01-26T03:30:19.157Z,3.17
2019-01-26T03:35:20.752Z,3.10
2019-01-26T03:40:22.357Z,3.20
2019-01-26T03:45:24.030Z,2.90
2019-01-26T03:50:25.328Z,2.90
2019-01-26T03:55:26.601Z,3.00
2019-01-26T04:00:27.881Z,2.97
2019-01-26T04:05:29.185Z,2.53
2019-01-26T04:10:30.532Z,2.77
2019-01-26T04:15:31.842Z,2.40
2019-01-26T04:20:33.119Z,3.40
2019-01-26T04:25:34.761Z,3.10
2019-01-26T04:30:36.041Z,3.33
2019-01-26T04:35:37.311Z,3.60
2019-01-26T04:40:38.580Z,2.83
2019-01-26T04:45:39.857Z,2.30
2019-01-26T04:50:42.552Z,2.10
2019-01-26T04:55:43.898Z,2.20
2019-01-26T05:00:45.492Z,2.50
2019-01-26T05:05:47.176Z,2.10
2019-01-26T05:10:48.446Z,1.90
2019-01-26T05:15:50.043Z,2.10
2019-01-26T05:20:51.317Z,1.80
2019-01-26T05:25:52.593Z,2.23
2019-01-26T05:30:53.885Z,2.10
2019-01-26T05:35:55.162Z,2.20
2019-01-26T05:40:56.441Z,2.00
2019-01-26T05:45:57.726Z,2.10
2019-01-26T05:50:58.962Z,2.00
2019-01-26T05:56:00.233Z,2.07
2019-01-26T06:01:01.869Z,2.40
2019-01-26T06:06:03.170Z,2.27
2019-01-26T06:11:04.461Z,2.30
2019-01-26T06:16:05.739Z,2.57
2019-01-26T06:21:07.011Z,1.90
2019-01-26T06:26:08.290Z,1.80
2019-01-26T06:31:09.857Z,2.90
2019-01-26T06:36:11.138Z,3.00
2019-01-26T06:41:12.737Z,3.00
2019-01-26T06:46:14.417Z,2.60
2019-01-26T06:51:16.099Z,2.47
2019-01-26T06:56:17.733Z,2.57
2019-01-26T07:01:19.011Z,2.13
2019-01-26T07:06:22.213Z,2.23
2019-01-26T07:11:23.492Z,2.10
2019-01-26T07:16:25.365Z,1.90
2019-01-26T07:21:26.973Z,2.30
2019-01-26T07:26:28.255Z,2.30
2019-01-26T07:31:29.528Z,2.33
2019-01-26T07:36:31.162Z,2.40
2019-01-26T07:41:32.438Z,2.37
2019-01-26T07:46:33.714Z,2.60
2019-01-26T07:51:35.016Z,2.40
2019-01-26T07:56:36.856Z,2.27
2019-01-26T08:01:38.452Z,2.17
2019-01-26T08:06:39.758Z,1.93
2019-01-26T08:11:42.459Z,2.30
2019-01-26T08:16:44.260Z,2.10
2019-01-26T08:21:45.630Z,2.53
2019-01-26T08:26:46.906Z,2.10
2019-01-26T08:31:48.178Z,1.90
2019-01-26T08:36:49.788Z,2.23
2019-01-26T08:41:51.216Z,2.00
2019-01-26T08:46:52.425Z,2.10
2019-01-26T08:51:53.699Z,2.33
2019-01-26T08:56:55.227Z,2.27
2019-01-26T09:01:59.158Z,1.80
2019-01-26T09:07:00.870Z,2.20
2019-01-26T09:12:02.142Z,2.03
2019-01-26T09:17:03.425Z,2.40
2019-01-26T09:22:04.721Z,2.90
2019-01-26T09:27:05.977Z,5.57
2019-01-26T09:32:07.573Z,3.60
2019-01-26T09:37:09.182Z,5.10
2019-01-26T09:42:10.450Z,4.60
2019-01-26T09:47:11.724Z,4.17
2019-01-26T09:52:13.002Z,3.43
2019-01-26T09:57:14.594Z,4.43
2019-01-26T10:02:15.890Z,6.03
2019-01-26T10:07:17.204Z,4.13
2019-01-26T10:12:18.459Z,6.57
2019-01-26T10:17:19.753Z,3.80
2019-01-26T10:22:21.423Z,3.87
2019-01-26T10:27:22.697Z,3.10
2019-01-26T10:32:23.978Z,3.00
2019-01-26T10:37:26.944Z,2.87
2019-01-26T10:42:28.314Z,2.90
2019-01-26T10:47:29.918Z,2.70
2019-01-26T10:52:31.566Z,2.70
2019-01-26T10:57:32.836Z,2.20
2019-01-26T11:02:34.114Z,2.50
2019-01-26T11:07:35.814Z,2.40
2019-01-26T11:12:37.100Z,2.20
2019-01-26T11:17:38.362Z,3.17
2019-01-26T11:22:39.651Z,2.30
2019-01-26T11:27:40.926Z,3.93
2019-01-26T11:32:42.204Z,4.30
2019-01-26T11:37:43.487Z,4.00
2019-01-26T11:42:44.763Z,2.60
2019-01-26T11:47:46.339Z,2.60
2019-01-26T11:52:47.609Z,3.00
2019-01-26T11:57:48.878Z,2.80
2019-01-26T12:02:52.181Z,2.47
2019-01-26T12:07:55.304Z,2.50
2019-01-26T12:12:56.662Z,2.37
2019-01-26T12:17:58.277Z,2.60
2019-01-26T12:23:00.024Z,2.43
2019-01-26T12:28:01.229Z,2.57
2019-01-26T12:33:02.612Z,2.40
2019-01-26T12:38:03.908Z,2.87
2019-01-26T12:43:05.186Z,2.70
2019-01-26T12:48:06.726Z,2.90
2019-01-26T12:53:08.007Z,3.33
2019-01-26T12:58:09.654Z,3.00
2019-01-26T13:03:10.930Z,2.80
2019-01-26T13:08:12.233Z,2.87
2019-01-26T13:13:13.505Z,3.97
2019-01-26T13:18:15.104Z,3.10
2019-01-26T13:23:16.721Z,3.00
2019-01-26T13:28:18.001Z,2.70
2019-01-26T13:33:19.281Z,2.53
2019-01-26T13:38:20.570Z,3.20
2019-01-26T13:43:22.197Z,3.40
2019-01-26T13:48:23.491Z,3.43
2019-01-26T13:53:24.749Z,3.03
2019-01-26T13:58:26.029Z,3.20
2019-01-26T14:03:27.332Z,3.30
2019-01-26T14:08:28.604Z,3.77
2019-01-26T14:13:29.881Z,4.03
2019-01-26T14:18:31.185Z,3.87
2019-01-26T14:23:32.609Z,3.83
2019-01-26T14:28:33.906Z,3.80
2019-01-26T14:33:35.197Z,3.50
2019-01-26T14:38:36.843Z,2.57
2019-01-26T14:43:38.118Z,2.30
2019-01-26T14:48:39.389Z,2.80
2019-01-26T14:53:47.484Z,2.40
2019-01-26T14:58:43.749Z,2.70
2019-01-26T15:03:45.333Z,2.20
2019-01-26T15:08:46.694Z,2.93
2019-01-26T15:13:47.965Z,3.00
2019-01-26T15:18:49.245Z,3.63
2019-01-26T15:23:50.526Z,3.80
2019-01-26T15:28:51.834Z,5.47
2019-01-26T15:33:53.090Z,3.90
2019-01-26T15:38:54.367Z,3.57
2019-01-26T15:43:55.665Z,3.23
2019-01-26T15:48:56.957Z,3.90
2019-01-26T15:53:58.227Z,3.30
2019-01-26T15:58:59.809Z,3.80
2019-01-26T16:04:01.093Z,3.40
2019-01-26T16:09:05.180Z,3.93
2019-01-26T16:14:06.402Z,4.50
2019-01-26T16:19:07.919Z,5.53
2019-01-26T16:24:09.202Z,5.13
2019-01-26T16:29:10.471Z,10.47
2019-01-26T16:34:11.741Z,4.90
2019-01-26T16:39:13.013Z,6.27
2019-01-26T16:44:14.284Z,4.73
2019-01-26T16:49:15.682Z,6.73
2019-01-26T16:54:17.363Z,5.47
2019-01-26T16:59:19.016Z,7.77
2019-01-26T17:04:20.286Z,4.60
2019-01-26T17:09:21.622Z,6.07
2019-01-26T17:14:23.231Z,3.70
2019-01-26T17:19:24.505Z,3.77
2019-01-26T17:24:26.073Z,3.97
2019-01-26T17:29:27.358Z,4.10
2019-01-26T17:34:30.319Z,4.53
2019-01-26T17:39:31.842Z,3.67
2019-01-26T17:44:33.137Z,6.00
2019-01-26T17:49:34.545Z,4.60
2019-01-26T17:54:37.516Z,2.97
2019-01-26T17:59:38.730Z,3.70
2019-01-26T18:04:40.394Z,2.33
2019-01-26T18:09:41.713Z,2.33
2019-01-26T18:14:43.246Z,2.97
2019-01-26T18:19:44.634Z,2.90
2019-01-26T18:24:45.949Z,2.43
2019-01-26T18:29:47.280Z,2.37
2019-01-26T18:34:48.938Z,2.30
2019-01-26T18:39:50.578Z,2.20
2019-01-26T18:44:51.935Z,2.60
2019-01-26T18:49:53.209Z,2.47
2019-01-26T18:54:54.493Z,3.17
2019-01-26T18:59:55.791Z,2.03
2019-01-26T19:04:58.492Z,2.00
2019-01-26T19:10:00.173Z,2.30
2019-01-26T19:15:01.883Z,2.33
2019-01-26T19:20:06.947Z,2.52
2019-01-26T19:25:20.365Z,2.00
2019-01-26T19:30:22.462Z,1.97
2019-01-26T19:35:23.735Z,2.27
2019-01-26T19:40:25.029Z,3.47
2019-01-26T19:45:26.425Z,2.57
2019-01-26T19:50:27.700Z,2.50
2019-01-26T19:55:29.122Z,2.20
2019-01-26T20:00:30.593Z,2.40
2019-01-26T20:05:32.024Z,3.07
2019-01-26T20:10:34.854Z,3.53
2019-01-26T20:15:36.220Z,3.40
2019-01-26T20:20:39.321Z,3.53
2019-01-26T20:25:40.732Z,3.53
2019-01-26T20:30:43.054Z,4.33
2019-01-26T20:35:44.730Z,2.50
2019-01-26T20:40:46.026Z,4.10
2019-01-26T20:45:47.374Z,2.93
2019-01-26T20:50:48.676Z,5.40
2019-01-26T20:55:50.112Z,3.50
2019-01-26T21:00:51.598Z,2.77
2019-01-26T21:05:52.909Z,4.23
2019-01-26T21:10:54.485Z,2.30
2019-01-26T21:15:55.775Z,2.10
2019-01-26T21:20:57.120Z,2.20
2019-01-26T21:25:58.369Z,3.30
2019-01-26T21:30:59.649Z,3.13
2019-01-26T21:36:01.316Z,2.47
2019-01-26T21:41:02.586Z,3.00
2019-01-26T21:46:04.189Z,2.20
2019-01-26T21:51:05.478Z,2.33
2019-01-26T21:56:06.762Z,2.53
2019-01-26T22:01:08.058Z,1.90
2019-01-26T22:06:09.379Z,2.03
2019-01-26T22:11:11.014Z,2.67
2019-01-26T22:16:12.657Z,2.13
2019-01-26T22:21:14.377Z,1.83
2019-01-26T22:26:15.787Z,1.97
2019-01-26T22:31:16.990Z,2.50
2019-01-26T22:36:18.267Z,1.80
2019-01-26T22:41:19.561Z,1.60
2019-01-26T22:46:21.222Z,2.67
2019-01-26T22:51:22.505Z,1.63
2019-01-26T22:56:23.801Z,1.40
2019-01-26T23:01:25.205Z,1.50
2019-01-26T23:06:33.142Z,1.77
2019-01-26T23:12:15.190Z,1.60
2019-01-26T23:17:26.071Z,1.40
2019-01-26T23:22:51.175Z,1.40
2019-01-26T23:28:11.509Z,1.60
2019-01-26T23:33:13.801Z,1.97
2019-01-26T23:38:15.100Z,1.50
2019-01-26T23:43:16.581Z,1.80
2019-01-26T23:48:18.189Z,1.67
2019-01-26T23:53:20.138Z,1.47
2019-01-26T23:58:21.817Z,1.20
